sensor_id;sensor_type;location;lat;lon;timestamp;P1;durP1;ratioP1;P2;durP2;ratioP2
72060;SDS011;59925;52.136;5.420;2023-10-08T00:00:05;13.48;;;3.30;;
72060;SDS011;59925;52.136;5.420;2023-10-08T00:02:52;16.90;;;3.80;;
72060;SDS011;59925;52.136;5.420;2023-10-08T00:05:19;19.58;;;3.22;;
72060;SDS011;59925;52.136;5.420;2023-10-08T00:07:46;15.48;;;2.88;;
72060;SDS011;59925;52.136;5.420;2023-10-08T00:10:16;16.33;;;4.03;;
72060;SDS011;59925;52.136;5.420;2023-10-08T00:12:43;13.25;;;3.88;;
72060;SDS011;59925;52.136;5.420;2023-10-08T00:15:13;13.40;;;3.38;;
72060;SDS011;59925;52.136;5.420;2023-10-08T00:17:40;17.85;;;3.83;;
72060;SDS011;59925;52.136;5.420;2023-10-08T00:20:07;17.88;;;3.58;;
72060;SDS011;59925;52.136;5.420;2023-10-08T00:22:35;19.60;;;3.83;;
72060;SDS011;59925;52.136;5.420;2023-10-08T00:25:02;17.38;;;3.97;;
72060;SDS011;59925;52.136;5.420;2023-10-08T00:27:37;13.98;;;4.00;;
72060;SDS011;59925;52.136;5.420;2023-10-08T00:30:05;19.13;;;4.20;;
72060;SDS011;59925;52.136;5.420;2023-10-08T00:32:44;18.55;;;3.45;;
72060;SDS011;59925;52.136;5.420;2023-10-08T00:35:11;20.07;;;3.97;;
72060;SDS011;59925;52.136;5.420;2023-10-08T00:37:40;13.52;;;3.47;;
72060;SDS011;59925;52.136;5.420;2023-10-08T00:40:07;16.92;;;3.42;;
72060;SDS011;59925;52.136;5.420;2023-10-08T00:42:45;13.95;;;3.30;;
72060;SDS011;59925;52.136;5.420;2023-10-08T00:45:12;11.18;;;2.92;;
72060;SDS011;59925;52.136;5.420;2023-10-08T00:47:42;17.30;;;3.17;;
72060;SDS011;59925;52.136;5.420;2023-10-08T00:50:10;15.02;;;3.85;;
72060;SDS011;59925;52.136;5.420;2023-10-08T00:52:47;15.32;;;4.20;;
72060;SDS011;59925;52.136;5.420;2023-10-08T00:55:28;15.40;;;3.40;;
72060;SDS011;59925;52.136;5.420;2023-10-08T00:57:56;13.45;;;3.30;;
72060;SDS011;59925;52.136;5.420;2023-10-08T01:00:24;12.07;;;3.60;;
72060;SDS011;59925;52.136;5.420;2023-10-08T01:02:59;14.45;;;3.33;;
72060;SDS011;59925;52.136;5.420;2023-10-08T01:05:28;14.35;;;3.65;;
72060;SDS011;59925;52.136;5.420;2023-10-08T01:08:14;12.35;;;3.22;;
72060;SDS011;59925;52.136;5.420;2023-10-08T01:11:16;15.32;;;3.28;;
72060;SDS011;59925;52.136;5.420;2023-10-08T01:14:05;13.37;;;4.03;;
72060;SDS011;59925;52.136;5.420;2023-10-08T01:16:34;15.20;;;3.55;;
72060;SDS011;59925;52.136;5.420;2023-10-08T01:19:01;15.57;;;3.67;;
72060;SDS011;59925;52.136;5.420;2023-10-08T01:21:28;14.85;;;3.78;;
72060;SDS011;59925;52.136;5.420;2023-10-08T01:24:05;14.13;;;3.53;;
72060;SDS011;59925;52.136;5.420;2023-10-08T01:26:34;16.67;;;3.53;;
72060;SDS011;59925;52.136;5.420;2023-10-08T01:29:02;15.50;;;3.35;;
72060;SDS011;59925;52.136;5.420;2023-10-08T01:31:30;13.13;;;3.50;;
72060;SDS011;59925;52.136;5.420;2023-10-08T01:33:58;12.00;;;3.33;;
72060;SDS011;59925;52.136;5.420;2023-10-08T01:36:24;13.57;;;3.17;;
72060;SDS011;59925;52.136;5.420;2023-10-08T01:38:52;13.03;;;3.10;;
72060;SDS011;59925;52.136;5.420;2023-10-08T01:41:21;11.48;;;3.83;;
72060;SDS011;59925;52.136;5.420;2023-10-08T01:43:57;19.75;;;4.28;;
72060;SDS011;59925;52.136;5.420;2023-10-08T01:46:24;14.07;;;3.50;;
72060;SDS011;59925;52.136;5.420;2023-10-08T01:48:51;13.95;;;3.22;;
72060;SDS011;59925;52.136;5.420;2023-10-08T01:51:32;19.93;;;3.67;;
72060;SDS011;59925;52.136;5.420;2023-10-08T01:54:10;14.73;;;3.55;;
72060;SDS011;59925;52.136;5.420;2023-10-08T01:56:38;14.25;;;3.80;;
72060;SDS011;59925;52.136;5.420;2023-10-08T01:59:11;14.55;;;3.67;;
72060;SDS011;59925;52.136;5.420;2023-10-08T02:01:43;15.68;;;4.25;;
72060;SDS011;59925;52.136;5.420;2023-10-08T02:04:11;12.67;;;3.53;;
72060;SDS011;59925;52.136;5.420;2023-10-08T02:06:39;12.00;;;3.65;;
72060;SDS011;59925;52.136;5.420;2023-10-08T02:09:09;16.73;;;4.13;;
72060;SDS011;59925;52.136;5.420;2023-10-08T02:14:19;13.65;;;3.72;;
72060;SDS011;59925;52.136;5.420;2023-10-08T02:16:47;13.30;;;3.80;;
72060;SDS011;59925;52.136;5.420;2023-10-08T02:19:13;16.08;;;4.00;;
72060;SDS011;59925;52.136;5.420;2023-10-08T02:21:44;15.85;;;3.97;;
72060;SDS011;59925;52.136;5.420;2023-10-08T02:24:13;18.85;;;4.55;;
72060;SDS011;59925;52.136;5.420;2023-10-08T02:26:40;13.50;;;4.03;;
72060;SDS011;59925;52.136;5.420;2023-10-08T02:29:09;17.37;;;4.23;;
72060;SDS011;59925;52.136;5.420;2023-10-08T02:31:39;18.33;;;4.53;;
72060;SDS011;59925;52.136;5.420;2023-10-08T02:34:06;18.65;;;4.93;;
72060;SDS011;59925;52.136;5.420;2023-10-08T02:36:37;17.52;;;4.10;;
72060;SDS011;59925;52.136;5.420;2023-10-08T02:39:03;17.25;;;4.55;;
72060;SDS011;59925;52.136;5.420;2023-10-08T02:41:43;16.47;;;4.07;;
72060;SDS011;59925;52.136;5.420;2023-10-08T02:44:13;11.93;;;4.05;;
72060;SDS011;59925;52.136;5.420;2023-10-08T02:46:41;14.45;;;4.13;;
72060;SDS011;59925;52.136;5.420;2023-10-08T02:49:08;15.68;;;4.40;;
72060;SDS011;59925;52.136;5.420;2023-10-08T02:51:40;15.60;;;4.15;;
72060;SDS011;59925;52.136;5.420;2023-10-08T02:54:08;13.33;;;4.40;;
72060;SDS011;59925;52.136;5.420;2023-10-08T02:56:43;14.95;;;4.10;;
72060;SDS011;59925;52.136;5.420;2023-10-08T02:59:11;11.88;;;3.75;;
72060;SDS011;59925;52.136;5.420;2023-10-08T03:01:39;11.15;;;4.68;;
72060;SDS011;59925;52.136;5.420;2023-10-08T03:04:07;18.40;;;4.63;;
72060;SDS011;59925;52.136;5.420;2023-10-08T03:06:47;14.27;;;3.97;;
72060;SDS011;59925;52.136;5.420;2023-10-08T03:09:16;14.88;;;4.63;;
72060;SDS011;59925;52.136;5.420;2023-10-08T03:11:52;21.00;;;4.82;;
72060;SDS011;59925;52.136;5.420;2023-10-08T03:14:19;13.82;;;4.93;;
72060;SDS011;59925;52.136;5.420;2023-10-08T03:16:52;24.67;;;5.28;;
72060;SDS011;59925;52.136;5.420;2023-10-08T03:19:21;13.30;;;4.53;;
72060;SDS011;59925;52.136;5.420;2023-10-08T03:21:48;14.27;;;4.03;;
72060;SDS011;59925;52.136;5.420;2023-10-08T03:24:22;13.98;;;4.22;;
72060;SDS011;59925;52.136;5.420;2023-10-08T03:26:55;11.60;;;4.43;;
72060;SDS011;59925;52.136;5.420;2023-10-08T03:29:36;13.98;;;4.90;;
72060;SDS011;59925;52.136;5.420;2023-10-08T03:32:09;18.43;;;4.83;;
72060;SDS011;59925;52.136;5.420;2023-10-08T03:34:43;13.52;;;4.20;;
72060;SDS011;59925;52.136;5.420;2023-10-08T03:37:17;15.48;;;4.50;;
72060;SDS011;59925;52.136;5.420;2023-10-08T03:39:47;12.82;;;4.65;;
72060;SDS011;59925;52.136;5.420;2023-10-08T03:42:22;13.45;;;4.97;;
72060;SDS011;59925;52.136;5.420;2023-10-08T03:44:52;15.07;;;4.40;;
72060;SDS011;59925;52.136;5.420;2023-10-08T03:47:21;17.73;;;5.13;;
72060;SDS011;59925;52.136;5.420;2023-10-08T03:49:49;20.52;;;4.93;;
72060;SDS011;59925;52.136;5.420;2023-10-08T03:52:17;13.02;;;5.05;;
72060;SDS011;59925;52.136;5.420;2023-10-08T03:54:52;19.40;;;5.38;;
72060;SDS011;59925;52.136;5.420;2023-10-08T03:57:37;15.37;;;4.70;;
72060;SDS011;59925;52.136;5.420;2023-10-08T04:00:11;12.63;;;4.80;;
72060;SDS011;59925;52.136;5.420;2023-10-08T04:02:45;18.58;;;5.85;;
72060;SDS011;59925;52.136;5.420;2023-10-08T04:05:22;16.73;;;4.82;;
72060;SDS011;59925;52.136;5.420;2023-10-08T04:07:58;15.13;;;4.40;;
72060;SDS011;59925;52.136;5.420;2023-10-08T04:10:28;19.83;;;4.60;;
72060;SDS011;59925;52.136;5.420;2023-10-08T04:13:25;16.10;;;4.20;;
72060;SDS011;59925;52.136;5.420;2023-10-08T04:15:52;15.27;;;4.05;;
72060;SDS011;59925;52.136;5.420;2023-10-08T04:18:18;9.70;;;3.60;;
72060;SDS011;59925;52.136;5.420;2023-10-08T04:20:46;15.85;;;3.50;;
72060;SDS011;59925;52.136;5.420;2023-10-08T04:23:27;13.50;;;3.63;;
72060;SDS011;59925;52.136;5.420;2023-10-08T04:25:55;11.07;;;2.97;;
72060;SDS011;59925;52.136;5.420;2023-10-08T04:28:22;16.05;;;3.33;;
72060;SDS011;59925;52.136;5.420;2023-10-08T04:30:54;15.82;;;2.95;;
72060;SDS011;59925;52.136;5.420;2023-10-08T04:33:29;11.13;;;2.70;;
72060;SDS011;59925;52.136;5.420;2023-10-08T04:36:00;15.07;;;2.70;;
72060;SDS011;59925;52.136;5.420;2023-10-08T04:38:28;8.82;;;2.28;;
72060;SDS011;59925;52.136;5.420;2023-10-08T04:40:55;13.15;;;2.70;;
72060;SDS011;59925;52.136;5.420;2023-10-08T04:43:28;9.45;;;2.50;;
72060;SDS011;59925;52.136;5.420;2023-10-08T04:48:24;15.17;;;2.70;;
72060;SDS011;59925;52.136;5.420;2023-10-08T04:50:51;10.63;;;3.05;;
72060;SDS011;59925;52.136;5.420;2023-10-08T04:53:25;11.20;;;2.70;;
72060;SDS011;59925;52.136;5.420;2023-10-08T04:56:02;8.82;;;2.58;;
72060;SDS011;59925;52.136;5.420;2023-10-08T04:58:40;12.85;;;2.83;;
72060;SDS011;59925;52.136;5.420;2023-10-08T05:01:07;6.43;;;2.20;;
72060;SDS011;59925;52.136;5.420;2023-10-08T05:03:45;13.13;;;2.72;;
72060;SDS011;59925;52.136;5.420;2023-10-08T05:06:29;14.65;;;2.58;;
72060;SDS011;59925;52.136;5.420;2023-10-08T05:11:49;11.60;;;2.72;;
72060;SDS011;59925;52.136;5.420;2023-10-08T05:14:18;17.33;;;2.50;;
72060;SDS011;59925;52.136;5.420;2023-10-08T05:17:07;10.32;;;3.13;;
72060;SDS011;59925;52.136;5.420;2023-10-08T05:19:38;8.93;;;3.00;;
72060;SDS011;59925;52.136;5.420;2023-10-08T05:22:17;12.75;;;3.13;;
72060;SDS011;59925;52.136;5.420;2023-10-08T05:24:48;11.73;;;2.80;;
72060;SDS011;59925;52.136;5.420;2023-10-08T05:27:34;18.10;;;2.83;;
72060;SDS011;59925;52.136;5.420;2023-10-08T05:30:24;7.80;;;3.08;;
72060;SDS011;59925;52.136;5.420;2023-10-08T05:33:04;9.10;;;3.40;;
72060;SDS011;59925;52.136;5.420;2023-10-08T05:35:33;10.13;;;3.42;;
72060;SDS011;59925;52.136;5.420;2023-10-08T05:38:11;9.18;;;2.72;;
72060;SDS011;59925;52.136;5.420;2023-10-08T05:40:48;6.93;;;2.80;;
72060;SDS011;59925;52.136;5.420;2023-10-08T05:48:53;8.77;;;2.47;;
72060;SDS011;59925;52.136;5.420;2023-10-08T05:51:50;10.68;;;1.92;;
72060;SDS011;59925;52.136;5.420;2023-10-08T05:54:17;5.60;;;1.07;;
72060;SDS011;59925;52.136;5.420;2023-10-08T05:56:53;6.22;;;1.38;;
72060;SDS011;59925;52.136;5.420;2023-10-08T05:59:33;5.35;;;1.20;;
72060;SDS011;59925;52.136;5.420;2023-10-08T06:02:20;5.90;;;0.80;;
72060;SDS011;59925;52.136;5.420;2023-10-08T06:05:01;5.75;;;1.15;;
72060;SDS011;59925;52.136;5.420;2023-10-08T06:08:12;4.63;;;0.93;;
72060;SDS011;59925;52.136;5.420;2023-10-08T06:10:39;7.22;;;0.73;;
72060;SDS011;59925;52.136;5.420;2023-10-08T06:13:09;3.42;;;0.68;;
72060;SDS011;59925;52.136;5.420;2023-10-08T06:16:09;3.40;;;0.45;;
72060;SDS011;59925;52.136;5.420;2023-10-08T06:18:39;3.75;;;0.88;;
72060;SDS011;59925;52.136;5.420;2023-10-08T06:21:06;4.90;;;0.70;;
72060;SDS011;59925;52.136;5.420;2023-10-08T06:23:35;1.80;;;0.35;;
72060;SDS011;59925;52.136;5.420;2023-10-08T06:26:04;6.05;;;0.77;;
72060;SDS011;59925;52.136;5.420;2023-10-08T06:28:37;7.13;;;1.23;;
72060;SDS011;59925;52.136;5.420;2023-10-08T06:31:06;6.78;;;0.82;;
72060;SDS011;59925;52.136;5.420;2023-10-08T06:33:38;5.63;;;0.87;;
72060;SDS011;59925;52.136;5.420;2023-10-08T06:36:08;4.40;;;0.85;;
72060;SDS011;59925;52.136;5.420;2023-10-08T06:38:45;2.08;;;0.73;;
72060;SDS011;59925;52.136;5.420;2023-10-08T06:41:16;5.60;;;0.60;;
72060;SDS011;59925;52.136;5.420;2023-10-08T06:44:05;4.25;;;0.60;;
72060;SDS011;59925;52.136;5.420;2023-10-08T06:46:32;4.77;;;1.10;;
72060;SDS011;59925;52.136;5.420;2023-10-08T06:48:59;3.28;;;0.60;;
72060;SDS011;59925;52.136;5.420;2023-10-08T06:51:30;9.45;;;1.33;;
72060;SDS011;59925;52.136;5.420;2023-10-08T06:53:59;3.38;;;0.50;;
72060;SDS011;59925;52.136;5.420;2023-10-08T06:56:29;2.92;;;0.73;;
72060;SDS011;59925;52.136;5.420;2023-10-08T06:58:57;2.47;;;0.80;;
72060;SDS011;59925;52.136;5.420;2023-10-08T07:01:26;2.85;;;0.80;;
72060;SDS011;59925;52.136;5.420;2023-10-08T07:03:55;2.15;;;0.65;;
72060;SDS011;59925;52.136;5.420;2023-10-08T07:06:30;3.05;;;0.70;;
72060;SDS011;59925;52.136;5.420;2023-10-08T07:09:01;2.10;;;0.80;;
72060;SDS011;59925;52.136;5.420;2023-10-08T07:11:49;1.30;;;0.57;;
72060;SDS011;59925;52.136;5.420;2023-10-08T07:14:22;4.25;;;0.70;;
72060;SDS011;59925;52.136;5.420;2023-10-08T07:16:58;2.58;;;0.85;;
72060;SDS011;59925;52.136;5.420;2023-10-08T07:19:30;3.13;;;0.88;;
72060;SDS011;59925;52.136;5.420;2023-10-08T07:22:04;2.78;;;1.00;;
72060;SDS011;59925;52.136;5.420;2023-10-08T07:24:54;4.80;;;0.97;;
72060;SDS011;59925;52.136;5.420;2023-10-08T07:27:21;2.97;;;0.98;;
72060;SDS011;59925;52.136;5.420;2023-10-08T07:29:50;5.53;;;1.13;;
72060;SDS011;59925;52.136;5.420;2023-10-08T07:32:16;4.53;;;1.10;;
72060;SDS011;59925;52.136;5.420;2023-10-08T07:34:45;2.72;;;1.20;;
72060;SDS011;59925;52.136;5.420;2023-10-08T07:37:12;3.83;;;1.30;;
72060;SDS011;59925;52.136;5.420;2023-10-08T07:39:40;1.83;;;0.90;;
72060;SDS011;59925;52.136;5.420;2023-10-08T07:42:17;3.53;;;1.10;;
72060;SDS011;59925;52.136;5.420;2023-10-08T07:44:43;3.15;;;1.13;;
72060;SDS011;59925;52.136;5.420;2023-10-08T07:47:10;4.07;;;1.30;;
72060;SDS011;59925;52.136;5.420;2023-10-08T07:49:39;3.07;;;1.50;;
72060;SDS011;59925;52.136;5.420;2023-10-08T07:52:05;3.70;;;1.40;;
72060;SDS011;59925;52.136;5.420;2023-10-08T07:54:32;2.13;;;1.27;;
72060;SDS011;59925;52.136;5.420;2023-10-08T07:57:01;3.83;;;1.85;;
72060;SDS011;59925;52.136;5.420;2023-10-08T07:59:45;2.88;;;1.48;;
72060;SDS011;59925;52.136;5.420;2023-10-08T08:02:14;3.00;;;1.67;;
72060;SDS011;59925;52.136;5.420;2023-10-08T08:04:44;4.63;;;1.55;;
72060;SDS011;59925;52.136;5.420;2023-10-08T08:07:12;3.08;;;1.40;;
72060;SDS011;59925;52.136;5.420;2023-10-08T08:09:49;5.43;;;1.80;;
72060;SDS011;59925;52.136;5.420;2023-10-08T08:12:18;2.50;;;1.40;;
72060;SDS011;59925;52.136;5.420;2023-10-08T08:14:48;3.90;;;1.50;;
72060;SDS011;59925;52.136;5.420;2023-10-08T08:17:15;3.03;;;1.40;;
72060;SDS011;59925;52.136;5.420;2023-10-08T08:19:44;2.80;;;1.38;;
72060;SDS011;59925;52.136;5.420;2023-10-08T08:22:16;5.85;;;1.52;;
72060;SDS011;59925;52.136;5.420;2023-10-08T08:24:57;2.90;;;1.17;;
72060;SDS011;59925;52.136;5.420;2023-10-08T08:27:42;2.87;;;1.10;;
72060;SDS011;59925;52.136;5.420;2023-10-08T08:30:19;2.47;;;1.20;;
72060;SDS011;59925;52.136;5.420;2023-10-08T08:32:46;4.53;;;1.27;;
72060;SDS011;59925;52.136;5.420;2023-10-08T08:35:19;2.78;;;1.60;;
72060;SDS011;59925;52.136;5.420;2023-10-08T08:37:46;3.03;;;1.20;;
72060;SDS011;59925;52.136;5.420;2023-10-08T08:40:18;3.60;;;1.33;;
72060;SDS011;59925;52.136;5.420;2023-10-08T08:42:51;3.80;;;1.30;;
72060;SDS011;59925;52.136;5.420;2023-10-08T08:45:19;3.47;;;1.50;;
72060;SDS011;59925;52.136;5.420;2023-10-08T08:47:47;3.88;;;1.10;;
72060;SDS011;59925;52.136;5.420;2023-10-08T08:50:14;2.78;;;1.10;;
72060;SDS011;59925;52.136;5.420;2023-10-08T08:52:44;2.20;;;1.10;;
72060;SDS011;59925;52.136;5.420;2023-10-08T08:55:12;2.70;;;1.30;;
72060;SDS011;59925;52.136;5.420;2023-10-08T08:57:46;3.03;;;1.83;;
72060;SDS011;59925;52.136;5.420;2023-10-08T09:00:15;2.70;;;1.40;;
72060;SDS011;59925;52.136;5.420;2023-10-08T09:02:46;2.45;;;1.63;;
72060;SDS011;59925;52.136;5.420;2023-10-08T09:05:15;3.07;;;1.00;;
72060;SDS011;59925;52.136;5.420;2023-10-08T09:07:56;3.67;;;1.40;;
72060;SDS011;59925;52.136;5.420;2023-10-08T09:10:25;2.22;;;1.15;;
72060;SDS011;59925;52.136;5.420;2023-10-08T09:12:56;4.50;;;1.20;;
72060;SDS011;59925;52.136;5.420;2023-10-08T09:15:26;3.33;;;1.58;;
72060;SDS011;59925;52.136;5.420;2023-10-08T09:17:56;3.37;;;1.30;;
72060;SDS011;59925;52.136;5.420;2023-10-08T09:20:27;3.95;;;1.67;;
72060;SDS011;59925;52.136;5.420;2023-10-08T09:23:05;4.07;;;1.77;;
72060;SDS011;59925;52.136;5.420;2023-10-08T09:25:43;4.20;;;1.48;;
72060;SDS011;59925;52.136;5.420;2023-10-08T09:28:11;6.30;;;1.52;;
72060;SDS011;59925;52.136;5.420;2023-10-08T09:30:41;3.83;;;1.70;;
72060;SDS011;59925;52.136;5.420;2023-10-08T09:33:12;2.55;;;1.40;;
72060;SDS011;59925;52.136;5.420;2023-10-08T09:35:39;6.15;;;1.50;;
72060;SDS011;59925;52.136;5.420;2023-10-08T09:38:06;7.22;;;2.05;;
72060;SDS011;59925;52.136;5.420;2023-10-08T09:40:37;3.25;;;1.50;;
72060;SDS011;59925;52.136;5.420;2023-10-08T09:43:04;3.13;;;1.60;;
72060;SDS011;59925;52.136;5.420;2023-10-08T09:45:31;2.85;;;1.58;;
72060;SDS011;59925;52.136;5.420;2023-10-08T09:47:58;3.67;;;1.50;;
72060;SDS011;59925;52.136;5.420;2023-10-08T09:50:29;2.47;;;1.60;;
72060;SDS011;59925;52.136;5.420;2023-10-08T09:53:06;2.58;;;1.58;;
72060;SDS011;59925;52.136;5.420;2023-10-08T09:55:45;2.80;;;1.53;;
72060;SDS011;59925;52.136;5.420;2023-10-08T09:58:17;4.18;;;1.75;;
72060;SDS011;59925;52.136;5.420;2023-10-08T10:00:44;4.20;;;1.75;;
72060;SDS011;59925;52.136;5.420;2023-10-08T10:03:15;4.00;;;1.40;;
72060;SDS011;59925;52.136;5.420;2023-10-08T10:05:45;3.05;;;1.67;;
72060;SDS011;59925;52.136;5.420;2023-10-08T10:08:15;2.77;;;1.67;;
72060;SDS011;59925;52.136;5.420;2023-10-08T10:10:42;3.00;;;1.70;;
72060;SDS011;59925;52.136;5.420;2023-10-08T10:13:16;4.18;;;1.80;;
72060;SDS011;59925;52.136;5.420;2023-10-08T10:15:43;4.03;;;1.80;;
72060;SDS011;59925;52.136;5.420;2023-10-08T10:18:13;5.10;;;2.05;;
72060;SDS011;59925;52.136;5.420;2023-10-08T10:20:57;4.77;;;1.97;;
72060;SDS011;59925;52.136;5.420;2023-10-08T10:23:39;3.15;;;2.08;;
72060;SDS011;59925;52.136;5.420;2023-10-08T10:26:31;3.78;;;1.95;;
72060;SDS011;59925;52.136;5.420;2023-10-08T10:31:42;4.03;;;2.20;;
72060;SDS011;59925;52.136;5.420;2023-10-08T10:34:13;4.23;;;2.30;;
72060;SDS011;59925;52.136;5.420;2023-10-08T10:36:44;3.03;;;2.20;;
72060;SDS011;59925;52.136;5.420;2023-10-08T10:39:15;3.03;;;2.17;;
72060;SDS011;59925;52.136;5.420;2023-10-08T10:41:44;4.75;;;1.83;;
72060;SDS011;59925;52.136;5.420;2023-10-08T10:44:15;5.35;;;2.10;;
72060;SDS011;59925;52.136;5.420;2023-10-08T10:46:42;4.77;;;2.23;;
72060;SDS011;59925;52.136;5.420;2023-10-08T10:49:09;6.22;;;2.65;;
72060;SDS011;59925;52.136;5.420;2023-10-08T10:51:47;3.53;;;2.50;;
72060;SDS011;59925;52.136;5.420;2023-10-08T10:54:24;3.67;;;2.45;;
72060;SDS011;59925;52.136;5.420;2023-10-08T10:56:51;4.70;;;2.90;;
72060;SDS011;59925;52.136;5.420;2023-10-08T10:59:43;5.47;;;2.43;;
72060;SDS011;59925;52.136;5.420;2023-10-08T11:02:19;5.20;;;2.75;;
72060;SDS011;59925;52.136;5.420;2023-10-08T11:04:58;3.95;;;2.83;;
72060;SDS011;59925;52.136;5.420;2023-10-08T11:07:34;4.88;;;3.17;;
72060;SDS011;59925;52.136;5.420;2023-10-08T11:10:03;4.35;;;2.80;;
72060;SDS011;59925;52.136;5.420;2023-10-08T11:12:36;6.47;;;3.30;;
72060;SDS011;59925;52.136;5.420;2023-10-08T11:15:18;4.90;;;3.08;;
72060;SDS011;59925;52.136;5.420;2023-10-08T11:17:45;4.20;;;3.05;;
72060;SDS011;59925;52.136;5.420;2023-10-08T11:20:26;3.72;;;2.67;;
72060;SDS011;59925;52.136;5.420;2023-10-08T11:22:53;4.50;;;2.88;;
72060;SDS011;59925;52.136;5.420;2023-10-08T11:25:21;5.03;;;3.00;;
72060;SDS011;59925;52.136;5.420;2023-10-08T11:27:57;4.43;;;2.78;;
72060;SDS011;59925;52.136;5.420;2023-10-08T11:30:35;4.78;;;2.72;;
72060;SDS011;59925;52.136;5.420;2023-10-08T11:33:02;7.07;;;2.97;;
72060;SDS011;59925;52.136;5.420;2023-10-08T11:35:32;4.85;;;2.78;;
72060;SDS011;59925;52.136;5.420;2023-10-08T11:38:00;3.93;;;2.90;;
72060;SDS011;59925;52.136;5.420;2023-10-08T11:40:28;4.38;;;3.00;;
72060;SDS011;59925;52.136;5.420;2023-10-08T11:42:56;5.72;;;3.08;;
72060;SDS011;59925;52.136;5.420;2023-10-08T11:45:29;4.72;;;2.92;;
72060;SDS011;59925;52.136;5.420;2023-10-08T11:48:05;5.47;;;2.83;;
72060;SDS011;59925;52.136;5.420;2023-10-08T11:50:38;5.93;;;3.40;;
72060;SDS011;59925;52.136;5.420;2023-10-08T11:53:07;5.57;;;3.03;;
72060;SDS011;59925;52.136;5.420;2023-10-08T11:55:33;4.78;;;2.88;;
72060;SDS011;59925;52.136;5.420;2023-10-08T11:58:05;6.70;;;2.83;;
72060;SDS011;59925;52.136;5.420;2023-10-08T12:00:43;5.15;;;2.70;;
72060;SDS011;59925;52.136;5.420;2023-10-08T12:03:13;3.90;;;2.33;;
72060;SDS011;59925;52.136;5.420;2023-10-08T12:05:45;4.80;;;2.67;;
72060;SDS011;59925;52.136;5.420;2023-10-08T12:08:17;5.20;;;2.50;;
72060;SDS011;59925;52.136;5.420;2023-10-08T12:10:47;4.55;;;2.10;;
72060;SDS011;59925;52.136;5.420;2023-10-08T12:13:14;3.30;;;1.67;;
72060;SDS011;59925;52.136;5.420;2023-10-08T12:15:45;3.20;;;1.87;;
72060;SDS011;59925;52.136;5.420;2023-10-08T12:18:13;4.53;;;2.08;;
72060;SDS011;59925;52.136;5.420;2023-10-08T12:20:51;3.63;;;1.67;;
72060;SDS011;59925;52.136;5.420;2023-10-08T12:23:20;3.80;;;1.98;;
72060;SDS011;59925;52.136;5.420;2023-10-08T12:25:52;5.05;;;2.50;;
72060;SDS011;59925;52.136;5.420;2023-10-08T12:28:22;6.47;;;2.30;;
72060;SDS011;59925;52.136;5.420;2023-10-08T12:30:53;3.55;;;2.20;;
72060;SDS011;59925;52.136;5.420;2023-10-08T12:33:20;4.03;;;1.75;;
72060;SDS011;59925;52.136;5.420;2023-10-08T12:35:48;5.43;;;1.88;;
72060;SDS011;59925;52.136;5.420;2023-10-08T12:38:15;2.90;;;1.45;;
72060;SDS011;59925;52.136;5.420;2023-10-08T12:40:41;4.13;;;1.57;;
72060;SDS011;59925;52.136;5.420;2023-10-08T12:43:14;4.10;;;1.90;;
72060;SDS011;59925;52.136;5.420;2023-10-08T12:45:46;4.10;;;1.83;;
72060;SDS011;59925;52.136;5.420;2023-10-08T12:48:21;4.53;;;1.80;;
72060;SDS011;59925;52.136;5.420;2023-10-08T12:50:50;3.40;;;1.55;;
72060;SDS011;59925;52.136;5.420;2023-10-08T12:53:23;6.60;;;1.60;;
72060;SDS011;59925;52.136;5.420;2023-10-08T12:56:00;2.65;;;1.48;;
72060;SDS011;59925;52.136;5.420;2023-10-08T12:58:35;3.85;;;1.50;;
72060;SDS011;59925;52.136;5.420;2023-10-08T13:01:13;2.80;;;1.30;;
72060;SDS011;59925;52.136;5.420;2023-10-08T13:03:40;3.55;;;1.20;;
72060;SDS011;59925;52.136;5.420;2023-10-08T13:06:14;3.00;;;1.20;;
72060;SDS011;59925;52.136;5.420;2023-10-08T13:08:49;5.00;;;1.13;;
72060;SDS011;59925;52.136;5.420;2023-10-08T13:11:19;3.78;;;1.40;;
72060;SDS011;59925;52.136;5.420;2023-10-08T13:13:53;2.72;;;1.02;;
72060;SDS011;59925;52.136;5.420;2023-10-08T13:16:24;2.45;;;1.10;;
72060;SDS011;59925;52.136;5.420;2023-10-08T13:18:52;3.87;;;1.17;;
72060;SDS011;59925;52.136;5.420;2023-10-08T13:21:23;2.13;;;0.90;;
72060;SDS011;59925;52.136;5.420;2023-10-08T13:23:51;5.70;;;1.35;;
72060;SDS011;59925;52.136;5.420;2023-10-08T13:26:18;2.20;;;0.88;;
72060;SDS011;59925;52.136;5.420;2023-10-08T13:28:48;5.28;;;1.42;;
72060;SDS011;59925;52.136;5.420;2023-10-08T13:31:15;1.70;;;1.10;;
72060;SDS011;59925;52.136;5.420;2023-10-08T13:33:44;3.25;;;1.30;;
72060;SDS011;59925;52.136;5.420;2023-10-08T13:36:15;2.88;;;1.23;;
72060;SDS011;59925;52.136;5.420;2023-10-08T13:38:45;5.28;;;1.30;;
72060;SDS011;59925;52.136;5.420;2023-10-08T13:41:13;2.92;;;1.35;;
72060;SDS011;59925;52.136;5.420;2023-10-08T13:43:43;6.00;;;1.90;;
72060;SDS011;59925;52.136;5.420;2023-10-08T13:46:14;5.18;;;1.38;;
72060;SDS011;59925;52.136;5.420;2023-10-08T13:48:44;3.25;;;1.25;;
72060;SDS011;59925;52.136;5.420;2023-10-08T13:51:15;4.00;;;1.42;;
72060;SDS011;59925;52.136;5.420;2023-10-08T13:53:50;5.30;;;1.42;;
72060;SDS011;59925;52.136;5.420;2023-10-08T13:56:26;5.77;;;1.73;;
72060;SDS011;59925;52.136;5.420;2023-10-08T13:58:53;3.92;;;1.40;;
72060;SDS011;59925;52.136;5.420;2023-10-08T14:01:30;3.55;;;1.67;;
72060;SDS011;59925;52.136;5.420;2023-10-08T14:04:01;3.60;;;1.75;;
72060;SDS011;59925;52.136;5.420;2023-10-08T14:06:35;4.55;;;1.30;;
72060;SDS011;59925;52.136;5.420;2023-10-08T14:09:14;3.30;;;1.13;;
72060;SDS011;59925;52.136;5.420;2023-10-08T14:11:47;3.42;;;1.60;;
72060;SDS011;59925;52.136;5.420;2023-10-08T14:14:16;4.05;;;1.63;;
72060;SDS011;59925;52.136;5.420;2023-10-08T14:16:45;3.50;;;1.40;;
72060;SDS011;59925;52.136;5.420;2023-10-08T14:19:18;2.85;;;1.38;;
72060;SDS011;59925;52.136;5.420;2023-10-08T14:21:48;6.60;;;1.77;;
72060;SDS011;59925;52.136;5.420;2023-10-08T14:24:16;5.07;;;1.52;;
72060;SDS011;59925;52.136;5.420;2023-10-08T14:26:43;4.10;;;1.80;;
72060;SDS011;59925;52.136;5.420;2023-10-08T14:29:13;6.72;;;1.48;;
72060;SDS011;59925;52.136;5.420;2023-10-08T14:31:43;3.42;;;1.70;;
72060;SDS011;59925;52.136;5.420;2023-10-08T14:34:15;4.00;;;1.43;;
72060;SDS011;59925;52.136;5.420;2023-10-08T14:36:46;4.20;;;1.60;;
72060;SDS011;59925;52.136;5.420;2023-10-08T14:39:32;3.97;;;1.52;;
72060;SDS011;59925;52.136;5.420;2023-10-08T14:42:18;7.78;;;1.55;;
72060;SDS011;59925;52.136;5.420;2023-10-08T14:45:04;4.57;;;1.65;;
72060;SDS011;59925;52.136;5.420;2023-10-08T14:47:38;3.60;;;1.70;;
72060;SDS011;59925;52.136;5.420;2023-10-08T14:50:05;3.28;;;1.63;;
72060;SDS011;59925;52.136;5.420;2023-10-08T14:52:32;5.20;;;1.60;;
72060;SDS011;59925;52.136;5.420;2023-10-08T14:54:59;3.40;;;1.55;;
72060;SDS011;59925;52.136;5.420;2023-10-08T14:57:26;3.25;;;1.55;;
72060;SDS011;59925;52.136;5.420;2023-10-08T14:59:55;4.33;;;1.57;;
72060;SDS011;59925;52.136;5.420;2023-10-08T15:02:23;3.88;;;1.60;;
72060;SDS011;59925;52.136;5.420;2023-10-08T15:04:55;4.30;;;1.70;;
72060;SDS011;59925;52.136;5.420;2023-10-08T15:07:23;4.35;;;1.73;;
72060;SDS011;59925;52.136;5.420;2023-10-08T15:09:49;2.92;;;1.52;;
72060;SDS011;59925;52.136;5.420;2023-10-08T15:12:16;4.63;;;2.10;;
72060;SDS011;59925;52.136;5.420;2023-10-08T15:14:43;5.70;;;1.90;;
72060;SDS011;59925;52.136;5.420;2023-10-08T15:17:09;4.72;;;1.90;;
72060;SDS011;59925;52.136;5.420;2023-10-08T15:19:36;3.85;;;1.67;;
72060;SDS011;59925;52.136;5.420;2023-10-08T15:22:04;3.47;;;1.70;;
72060;SDS011;59925;52.136;5.420;2023-10-08T15:24:31;4.80;;;2.70;;
72060;SDS011;59925;52.136;5.420;2023-10-08T15:26:59;6.55;;;2.15;;